Marstons Mills, Massachusetts
Current Conditions -  °F | °C
As of 6:55 PM on Saturday 25 Oct 2014 (Local Time) from KFMH Reporting Station
Scattered Clouds Scattered Clouds  
Wind Chill: 57°   Ceiling: Unl
Heat Index: 57°   Visibility: 10mi
Dew Point: 50°   Wind: 13mph
Humidity: 77%   Direction: 250°WSW
Pressure: 29.62"   Gusts: NA
Location:  41.66°N, 70.41°W
Report Text: KFMH 252255Z AUTO 25011KT 10SM SCT300 SCT320 14/10 A2962 RMK AO2
Loading
Personal Weather Stations






























Interactive Weather Map
Tropical Storm Tracking
New forecast layout! Learn more

10-Day Weather Forecast

Advertisements
Track Severe Weather on mobile